createdAt,value
2022-07-30T00:02:34.148Z,3.83
2022-07-30T00:05:27.344Z,3.13
2022-07-30T00:08:20.233Z,7.30
2022-07-30T00:11:13.266Z,4.85
2022-07-30T00:14:07.344Z,5.15
2022-07-30T00:17:00.209Z,4.65
2022-07-30T00:19:54.467Z,3.80
2022-07-30T00:22:49.241Z,3.65
2022-07-30T00:25:42.222Z,3.40
2022-07-30T00:28:35.217Z,3.80
2022-07-30T00:31:29.540Z,4.97
2022-07-30T00:34:22.772Z,3.75
2022-07-30T00:37:16.384Z,4.85
2022-07-30T00:40:10.894Z,6.22
2022-07-30T00:43:04.327Z,5.03
2022-07-30T00:45:57.455Z,5.65
2022-07-30T00:48:52.530Z,3.80
2022-07-30T00:51:46.326Z,4.22
2022-07-30T00:54:39.554Z,4.30
2022-07-30T00:57:33.275Z,5.43
2022-07-30T01:00:29.084Z,5.57
2022-07-30T01:03:21.943Z,5.15
2022-07-30T01:06:16.988Z,4.25
2022-07-30T01:09:10.747Z,4.30
2022-07-30T01:12:06.916Z,5.43
2022-07-30T01:15:02.727Z,6.03
2022-07-30T01:18:00.027Z,4.05
2022-07-30T01:21:05.418Z,2.70
2022-07-30T01:24:08.294Z,3.25
2022-07-30T01:27:03.316Z,3.97
2022-07-30T01:29:59.550Z,3.35
2022-07-30T01:32:55.403Z,4.07
2022-07-30T01:35:49.564Z,3.53
2022-07-30T01:38:46.218Z,4.70
2022-07-30T01:41:40.386Z,3.13
2022-07-30T01:44:35.791Z,3.88
2022-07-30T01:47:30.501Z,2.65
2022-07-30T01:50:24.125Z,2.47
2022-07-30T01:53:19.135Z,2.88
2022-07-30T01:56:16.626Z,4.00
2022-07-30T01:59:11.851Z,4.07
2022-07-30T02:02:06.519Z,2.67
2022-07-30T02:04:59.522Z,3.38
2022-07-30T02:07:57.261Z,2.40
2022-07-30T02:10:58.619Z,3.78
2022-07-30T02:13:55.723Z,4.03
2022-07-30T02:16:54.225Z,3.25
2022-07-30T02:19:53.020Z,2.85
2022-07-30T02:22:49.896Z,2.60
2022-07-30T02:25:48.244Z,3.92
2022-07-30T02:28:42.111Z,1.98
2022-07-30T02:31:36.037Z,2.92
2022-07-30T02:34:31.090Z,4.22
2022-07-30T02:37:43.072Z,3.95
2022-07-30T02:40:41.958Z,3.10
2022-07-30T02:43:36.872Z,4.10
2022-07-30T02:46:32.349Z,3.28
2022-07-30T02:49:25.995Z,3.40
2022-07-30T02:52:19.644Z,3.55
2022-07-30T02:55:16.561Z,2.95
2022-07-30T02:58:11.545Z,2.38
2022-07-30T03:01:04.916Z,3.50
2022-07-30T03:03:59.215Z,2.78
2022-07-30T03:06:53.827Z,4.00
2022-07-30T03:09:51.410Z,4.32
2022-07-30T03:12:52.180Z,3.10
2022-07-30T03:15:48.969Z,2.97
2022-07-30T03:18:43.756Z,2.22
2022-07-30T03:21:39.301Z,3.92
2022-07-30T03:24:33.380Z,2.83
2022-07-30T03:27:26.831Z,3.40
2022-07-30T03:30:22.540Z,3.08
2022-07-30T03:33:16.727Z,2.72
2022-07-30T03:36:13.195Z,2.92
2022-07-30T03:39:08.067Z,3.53
2022-07-30T03:42:02.549Z,3.65
2022-07-30T03:44:57.616Z,2.90
2022-07-30T03:47:52.942Z,2.97
2022-07-30T03:50:47.469Z,3.83
2022-07-30T03:53:42.851Z,3.03
2022-07-30T03:56:36.543Z,4.05
2022-07-30T03:59:29.487Z,2.83
2022-07-30T04:02:22.496Z,2.92
2022-07-30T04:05:17.281Z,2.45
2022-07-30T04:08:10.704Z,2.63
2022-07-30T04:11:04.730Z,3.28
2022-07-30T04:13:58.014Z,1.98
2022-07-30T04:16:56.025Z,2.25
2022-07-30T04:19:53.268Z,2.15
2022-07-30T04:22:49.047Z,3.80
2022-07-30T04:25:44.488Z,2.22
2022-07-30T04:28:38.697Z,1.83
2022-07-30T04:31:40.431Z,2.80
2022-07-30T04:34:34.679Z,2.67
2022-07-30T04:37:28.806Z,2.63
2022-07-30T04:40:23.940Z,2.22
2022-07-30T04:43:17.702Z,2.40
2022-07-30T04:46:11.464Z,2.85
2022-07-30T04:49:04.805Z,3.00
2022-07-30T04:51:59.533Z,2.80
2022-07-30T04:54:58.797Z,2.63
2022-07-30T04:57:54.407Z,3.00
2022-07-30T05:00:48.211Z,2.55
2022-07-30T05:03:41.845Z,2.20
2022-07-30T05:06:37.590Z,2.92
2022-07-30T05:09:31.915Z,3.20
2022-07-30T05:12:33.920Z,2.08
2022-07-30T05:15:35.982Z,2.22
2022-07-30T05:18:30.812Z,2.70
2022-07-30T05:21:24.482Z,2.40
2022-07-30T05:24:22.125Z,3.38
2022-07-30T05:27:15.172Z,2.33
2022-07-30T05:30:09.927Z,2.92
2022-07-30T05:33:12.244Z,2.58
2022-07-30T05:36:09.532Z,3.03
2022-07-30T05:39:02.578Z,2.58
2022-07-30T05:41:56.253Z,2.42
2022-07-30T05:44:49.285Z,1.65
2022-07-30T05:47:42.745Z,2.17
2022-07-30T05:50:37.847Z,2.45
2022-07-30T05:53:33.225Z,2.38
2022-07-30T05:56:26.840Z,3.53
2022-07-30T05:59:20.647Z,1.75
2022-07-30T06:02:13.342Z,2.30
2022-07-30T06:05:06.934Z,3.35
2022-07-30T06:08:01.984Z,3.38
2022-07-30T06:10:55.795Z,2.17
2022-07-30T06:13:49.424Z,3.28
2022-07-30T06:16:42.233Z,2.58
2022-07-30T06:19:35.484Z,2.65
2022-07-30T06:22:28.657Z,2.75
2022-07-30T06:25:22.896Z,3.15
2022-07-30T06:28:36.466Z,2.30
2022-07-30T06:31:30.680Z,3.10
2022-07-30T06:34:23.396Z,2.58
2022-07-30T06:37:16.588Z,3.42
2022-07-30T06:40:11.148Z,2.70
2022-07-30T06:43:05.582Z,7.80
2022-07-30T06:45:58.528Z,6.13
2022-07-30T06:48:51.662Z,6.85
2022-07-30T06:51:45.942Z,5.63
2022-07-30T06:54:39.415Z,4.07
2022-07-30T06:57:33.404Z,4.78
2022-07-30T07:00:32.221Z,6.22
2022-07-30T07:03:26.194Z,5.90
2022-07-30T07:06:32.788Z,6.20
2022-07-30T07:09:25.777Z,9.15
2022-07-30T07:12:18.720Z,8.43
2022-07-30T07:15:11.737Z,6.63
2022-07-30T07:18:06.698Z,5.35
2022-07-30T07:20:59.876Z,6.43
2022-07-30T07:23:53.632Z,7.43
2022-07-30T07:26:46.579Z,4.53
2022-07-30T07:29:39.429Z,5.28
2022-07-30T07:32:33.840Z,6.47
2022-07-30T07:35:28.684Z,7.45
2022-07-30T07:38:21.668Z,4.82
2022-07-30T07:41:14.669Z,5.68
2022-07-30T07:44:07.935Z,6.50
2022-07-30T07:47:01.903Z,6.95
2022-07-30T07:49:56.495Z,6.80
2022-07-30T07:52:50.996Z,5.60
2022-07-30T07:55:44.760Z,6.75
2022-07-30T07:58:38.545Z,7.10
2022-07-30T08:01:34.380Z,5.75
2022-07-30T08:04:27.811Z,4.50
2022-07-30T08:07:20.614Z,4.90
2022-07-30T08:10:15.967Z,6.03
2022-07-30T08:13:48.058Z,5.28
2022-07-30T08:16:22.985Z,5.13
2022-07-30T08:19:16.944Z,6.05
2022-07-30T08:22:10.669Z,5.88
2022-07-30T08:25:04.357Z,5.32
2022-07-30T08:28:00.585Z,6.85
2022-07-30T08:30:53.655Z,4.53
2022-07-30T08:33:46.604Z,4.88
2022-07-30T08:36:39.541Z,8.45
2022-07-30T08:39:32.440Z,4.93
2022-07-30T08:42:25.659Z,7.15
2022-07-30T08:45:20.595Z,6.35
2022-07-30T08:48:30.646Z,5.20
2022-07-30T08:51:24.548Z,5.13
2022-07-30T08:54:17.764Z,4.90
2022-07-30T08:57:10.936Z,5.22
2022-07-30T09:00:07.521Z,4.03
2022-07-30T09:03:02.454Z,5.22
2022-07-30T09:05:55.856Z,6.38
2022-07-30T09:08:48.727Z,3.97
2022-07-30T09:11:41.501Z,4.60
2022-07-30T09:14:34.505Z,4.82
2022-07-30T09:17:31.230Z,4.15
2022-07-30T09:20:29.731Z,5.95
2022-07-30T09:23:22.969Z,4.03
2022-07-30T09:26:16.696Z,5.45
2022-07-30T09:29:17.818Z,4.05
2022-07-30T09:32:10.375Z,3.92
2022-07-30T09:35:13.904Z,4.63
2022-07-30T09:38:08.116Z,3.70
2022-07-30T09:41:08.062Z,4.50
2022-07-30T09:44:06.744Z,3.13
2022-07-30T09:47:01.319Z,4.13
2022-07-30T09:50:07.021Z,5.10
2022-07-30T09:53:11.884Z,4.13
2022-07-30T09:56:27.234Z,3.50
2022-07-30T09:59:35.249Z,3.63
2022-07-30T10:02:33.353Z,3.95
2022-07-30T10:05:27.413Z,3.95
2022-07-30T10:08:38.659Z,4.32
2022-07-30T10:11:31.924Z,5.53
2022-07-30T10:14:31.431Z,4.03
2022-07-30T10:17:25.855Z,4.28
2022-07-30T10:20:18.828Z,3.45
2022-07-30T10:23:15.553Z,4.07
2022-07-30T10:26:12.139Z,2.80
2022-07-30T10:29:06.085Z,3.60
2022-07-30T10:32:02.639Z,3.63
2022-07-30T10:34:56.416Z,5.18
2022-07-30T10:37:52.727Z,3.28
2022-07-30T10:40:53.021Z,2.88
2022-07-30T10:44:10.357Z,5.07
2022-07-30T10:47:14.062Z,2.83
2022-07-30T10:50:11.741Z,3.28
2022-07-30T10:53:04.626Z,3.95
2022-07-30T10:56:13.328Z,3.05
2022-07-30T10:59:10.678Z,4.25
2022-07-30T11:02:11.105Z,2.83
2022-07-30T11:05:44.033Z,2.55
2022-07-30T11:08:42.844Z,3.55
2022-07-30T11:12:01.713Z,3.22
2022-07-30T11:15:07.393Z,2.45
2022-07-30T11:18:13.608Z,3.05
2022-07-30T11:21:21.590Z,4.18
2022-07-30T11:24:45.901Z,3.28
2022-07-30T11:27:41.482Z,4.10
2022-07-30T11:30:36.500Z,2.97
2022-07-30T11:33:33.003Z,2.22
2022-07-30T11:36:26.600Z,2.97
2022-07-30T11:39:20.216Z,3.13
2022-07-30T11:42:26.800Z,2.40
2022-07-30T11:45:26.925Z,2.67
2022-07-30T11:48:22.457Z,5.15
2022-07-30T11:51:15.594Z,3.60
2022-07-30T11:54:11.812Z,2.47
2022-07-30T11:57:04.989Z,2.92
2022-07-30T11:59:58.412Z,3.35
2022-07-30T12:02:52.001Z,3.50
2022-07-30T12:05:51.126Z,2.50
2022-07-30T12:08:48.332Z,2.90
2022-07-30T12:11:41.585Z,2.30
2022-07-30T12:14:38.603Z,3.10
2022-07-30T12:17:42.377Z,3.38
2022-07-30T12:20:36.524Z,3.10
2022-07-30T12:23:32.400Z,3.67
2022-07-30T12:26:27.518Z,2.50
2022-07-30T12:29:22.231Z,2.72
2022-07-30T12:32:15.958Z,2.70
2022-07-30T12:35:10.373Z,2.70
2022-07-30T12:38:05.778Z,3.10
2022-07-30T12:41:01.436Z,1.83
2022-07-30T12:43:56.462Z,2.88
2022-07-30T12:46:50.024Z,2.90
2022-07-30T12:49:49.437Z,2.97
2022-07-30T12:52:50.210Z,3.05
2022-07-30T12:55:44.394Z,2.50
2022-07-30T12:58:39.407Z,2.15
2022-07-30T13:01:42.669Z,2.20
2022-07-30T13:04:39.814Z,2.00
2022-07-30T13:07:55.628Z,2.75
2022-07-30T13:10:57.142Z,1.95
2022-07-30T13:13:54.757Z,2.25
2022-07-30T13:16:47.651Z,2.20
2022-07-30T13:19:40.764Z,1.73
2022-07-30T13:22:34.208Z,2.22
2022-07-30T13:25:28.096Z,3.05
2022-07-30T13:28:35.146Z,2.30
2022-07-30T13:31:42.639Z,2.35
2022-07-30T13:34:36.986Z,2.30
2022-07-30T13:37:38.359Z,1.92
2022-07-30T13:40:32.635Z,3.08
2022-07-30T13:43:26.226Z,2.28
2022-07-30T13:46:19.973Z,2.45
2022-07-30T13:49:14.349Z,3.15
2022-07-30T13:52:09.146Z,2.38
2022-07-30T13:55:02.600Z,2.05
2022-07-30T13:57:56.210Z,2.97
2022-07-30T14:00:50.005Z,2.20
2022-07-30T14:03:48.489Z,2.08
2022-07-30T14:06:45.610Z,2.78
2022-07-30T14:09:46.970Z,1.70
2022-07-30T14:12:40.998Z,2.17
2022-07-30T14:15:34.390Z,2.53
2022-07-30T14:18:27.614Z,2.25
2022-07-30T14:21:20.875Z,2.63
2022-07-30T14:24:16.197Z,2.35
2022-07-30T14:27:10.032Z,2.17
2022-07-30T14:30:03.567Z,2.50
2022-07-30T14:33:02.852Z,2.90
2022-07-30T14:35:57.958Z,2.00
2022-07-30T14:38:54.019Z,1.85
2022-07-30T14:41:52.449Z,2.05
2022-07-30T14:44:52.227Z,2.08
2022-07-30T14:47:47.028Z,2.30
2022-07-30T14:50:57.222Z,2.80
2022-07-30T14:53:53.899Z,3.60
2022-07-30T14:56:48.186Z,2.25
2022-07-30T14:59:42.325Z,1.67
2022-07-30T15:02:37.180Z,2.03
2022-07-30T15:05:30.049Z,1.75
2022-07-30T15:08:23.202Z,2.38
2022-07-30T15:11:16.020Z,1.98
2022-07-30T15:14:09.584Z,2.25
2022-07-30T15:17:04.737Z,2.50
2022-07-30T15:19:58.075Z,2.80
2022-07-30T15:22:51.777Z,2.65
2022-07-30T15:25:46.496Z,2.33
2022-07-30T15:28:39.926Z,2.97
2022-07-30T15:31:32.636Z,2.25
2022-07-30T15:34:27.689Z,2.33
2022-07-30T15:37:21.117Z,1.90
2022-07-30T15:40:14.128Z,1.65
2022-07-30T15:43:09.802Z,2.15
2022-07-30T15:46:03.941Z,2.47
2022-07-30T15:48:57.190Z,1.98
2022-07-30T15:51:52.372Z,1.85
2022-07-30T15:54:46.108Z,2.05
2022-07-30T15:57:40.429Z,2.17
2022-07-30T16:00:34.016Z,1.67
2022-07-30T16:03:30.068Z,1.73
2022-07-30T16:06:23.103Z,2.08
2022-07-30T16:09:17.723Z,1.40
2022-07-30T16:12:11.324Z,2.80
2022-07-30T16:15:05.284Z,1.38
2022-07-30T16:17:59.005Z,1.85
2022-07-30T16:20:51.784Z,2.30
2022-07-30T16:23:45.852Z,1.42
2022-07-30T16:26:40.097Z,2.90
2022-07-30T16:29:32.755Z,1.80
2022-07-30T16:32:26.448Z,1.73
2022-07-30T16:35:20.443Z,1.88
2022-07-30T16:38:14.073Z,1.50
2022-07-30T16:41:11.658Z,2.22
2022-07-30T16:44:08.471Z,1.98
2022-07-30T16:47:02.646Z,2.45
2022-07-30T16:49:55.705Z,2.10
2022-07-30T16:52:49.667Z,1.77
2022-07-30T16:55:43.346Z,1.80
2022-07-30T16:58:38.974Z,1.27
2022-07-30T17:01:33.862Z,2.42
2022-07-30T17:04:26.776Z,1.50
2022-07-30T17:07:20.165Z,2.08
2022-07-30T17:10:13.463Z,1.67
2022-07-30T17:13:07.034Z,2.22
2022-07-30T17:16:00.115Z,1.40
2022-07-30T17:18:54.521Z,2.30
2022-07-30T17:21:48.056Z,1.60
2022-07-30T17:24:41.928Z,1.30
2022-07-30T17:27:34.722Z,1.77
2022-07-30T17:30:29.511Z,1.85
2022-07-30T17:33:22.872Z,1.65
2022-07-30T17:36:17.380Z,1.85
2022-07-30T17:40:03.982Z,2.33
2022-07-30T17:42:26.127Z,2.38
2022-07-30T17:45:19.405Z,1.88
2022-07-30T17:48:13.131Z,1.63
2022-07-30T17:51:06.361Z,2.05
2022-07-30T17:54:01.467Z,1.15
2022-07-30T17:56:55.389Z,1.55
2022-07-30T17:59:49.065Z,2.30
2022-07-30T18:02:41.721Z,1.60
2022-07-30T18:05:34.965Z,1.60
2022-07-30T18:08:29.194Z,1.58
2022-07-30T18:11:23.479Z,1.65
2022-07-30T18:14:19.611Z,1.25
2022-07-30T18:17:14.566Z,1.58
2022-07-30T18:20:08.767Z,1.40
2022-07-30T18:23:06.671Z,2.00
2022-07-30T18:26:01.602Z,1.40
2022-07-30T18:28:57.393Z,1.80
2022-07-30T18:31:51.003Z,2.10
2022-07-30T18:34:44.204Z,1.30
2022-07-30T18:37:41.332Z,1.45
2022-07-30T18:40:35.057Z,1.30
2022-07-30T18:43:29.282Z,1.95
2022-07-30T18:46:24.378Z,1.40
2022-07-30T18:52:30.172Z,1.38
2022-07-30T18:55:23.070Z,1.42
2022-07-30T18:58:16.809Z,1.30
2022-07-30T19:01:10.516Z,1.27
2022-07-30T19:04:06.020Z,1.35
2022-07-30T19:06:58.829Z,1.38
2022-07-30T19:09:55.302Z,1.20
2022-07-30T19:12:48.218Z,1.50
2022-07-30T19:15:41.287Z,1.92
2022-07-30T19:18:34.259Z,1.20
2022-07-30T19:21:28.414Z,1.60
2022-07-30T19:24:21.663Z,1.30
2022-07-30T19:27:15.152Z,1.85
2022-07-30T19:30:09.104Z,1.38
2022-07-30T19:33:10.103Z,1.23
2022-07-30T19:36:07.295Z,1.30
2022-07-30T19:39:06.947Z,1.88
2022-07-30T19:42:00.358Z,1.95
2022-07-30T19:44:53.939Z,1.77
2022-07-30T19:47:49.305Z,1.77
2022-07-30T19:50:42.443Z,1.80
2022-07-30T19:53:36.393Z,1.90
2022-07-30T19:56:33.046Z,1.67
2022-07-30T19:59:45.312Z,1.83
2022-07-30T20:02:40.448Z,1.75
2022-07-30T20:05:57.591Z,1.90
2022-07-30T20:08:49.463Z,1.95
2022-07-30T20:11:45.732Z,1.23
2022-07-30T20:14:43.361Z,1.42
2022-07-30T20:17:37.198Z,1.50
2022-07-30T20:20:30.091Z,1.30
2022-07-30T20:23:24.955Z,1.48
2022-07-30T20:26:19.347Z,1.90
2022-07-30T20:29:18.868Z,2.38
2022-07-30T20:32:29.288Z,1.70
2022-07-30T20:35:22.392Z,1.65
2022-07-30T20:38:16.324Z,2.38
2022-07-30T20:41:11.223Z,2.03
2022-07-30T20:44:13.379Z,1.30
2022-07-30T20:47:34.340Z,1.38
2022-07-30T20:50:31.457Z,1.55
2022-07-30T20:53:33.704Z,1.35
2022-07-30T20:56:30.304Z,2.10
2022-07-30T20:59:23.715Z,1.77
2022-07-30T21:02:18.685Z,1.73
2022-07-30T21:05:21.485Z,1.88
2022-07-30T21:08:15.656Z,1.55
2022-07-30T21:11:10.433Z,1.90
2022-07-30T21:14:06.293Z,1.40
2022-07-30T21:17:02.263Z,2.13
2022-07-30T21:19:57.441Z,1.55
2022-07-30T21:22:50.578Z,2.00
2022-07-30T21:26:00.558Z,2.00
2022-07-30T21:28:55.568Z,2.45
2022-07-30T21:32:00.419Z,1.55
2022-07-30T21:35:08.386Z,1.88
2022-07-30T21:38:02.233Z,1.40
2022-07-30T21:40:56.360Z,1.27
2022-07-30T21:43:49.526Z,1.73
2022-07-30T21:46:42.494Z,2.30
2022-07-30T21:49:36.098Z,1.88
2022-07-30T21:52:30.639Z,1.70
2022-07-30T21:55:24.049Z,1.20
2022-07-30T21:58:25.661Z,1.58
2022-07-30T22:01:21.835Z,1.98
2022-07-30T22:04:16.608Z,1.20
2022-07-30T22:07:10.063Z,1.77
2022-07-30T22:10:06.616Z,1.35
2022-07-30T22:13:05.432Z,1.65
2022-07-30T22:15:58.456Z,2.20
2022-07-30T22:18:51.323Z,1.77
2022-07-30T22:21:46.657Z,1.52
2022-07-30T22:24:40.376Z,1.52
2022-07-30T22:27:39.500Z,1.20
2022-07-30T22:30:33.749Z,1.73
2022-07-30T22:33:27.139Z,1.85
2022-07-30T22:36:24.676Z,1.50
2022-07-30T22:39:18.592Z,1.50
2022-07-30T22:42:12.904Z,1.90
2022-07-30T22:45:08.774Z,1.50
2022-07-30T22:48:10.344Z,1.80
2022-07-30T22:51:04.377Z,1.80
2022-07-30T22:54:12.828Z,2.00
2022-07-30T22:57:22.803Z,1.45
2022-07-30T23:00:28.317Z,2.53
2022-07-30T23:03:22.561Z,1.27
2022-07-30T23:06:16.363Z,1.60
2022-07-30T23:09:10.146Z,1.33
2022-07-30T23:12:03.502Z,1.83
2022-07-30T23:14:57.651Z,1.25
2022-07-30T23:17:53.062Z,1.38
2022-07-30T23:20:46.357Z,1.27
2022-07-30T23:23:39.999Z,1.83
2022-07-30T23:26:33.422Z,1.75
2022-07-30T23:29:26.504Z,1.40
2022-07-30T23:32:19.840Z,1.83
2022-07-30T23:35:14.508Z,1.75
2022-07-30T23:38:07.835Z,1.98
2022-07-30T23:41:04.065Z,1.58
2022-07-30T23:43:57.575Z,2.03
2022-07-30T23:46:50.643Z,1.30
2022-07-30T23:49:43.733Z,1.90
2022-07-30T23:52:38.797Z,1.85
2022-07-30T23:55:33.491Z,1.58
2022-07-30T23:58:26.222Z,1.88
